sensor_id;sensor_type;location;lat;lon;timestamp;temperature;humidity
35531;DHT22;21637;53.352;-6.356;2023-09-19T00:00:45;12.40;99.90
35531;DHT22;21637;53.352;-6.356;2023-09-19T00:03:12;12.40;99.90
35531;DHT22;21637;53.352;-6.356;2023-09-19T00:05:39;12.40;99.90
35531;DHT22;21637;53.352;-6.356;2023-09-19T00:08:05;12.50;99.90
35531;DHT22;21637;53.352;-6.356;2023-09-19T00:10:32;12.40;99.90
35531;DHT22;21637;53.352;-6.356;2023-09-19T00:13:01;12.40;99.90
35531;DHT22;21637;53.352;-6.356;2023-09-19T00:15:35;12.40;99.90
35531;DHT22;21637;53.352;-6.356;2023-09-19T00:18:01;12.40;99.90
35531;DHT22;21637;53.352;-6.356;2023-09-19T00:20:27;12.40;99.90
35531;DHT22;21637;53.352;-6.356;2023-09-19T00:22:55;12.40;99.90
35531;DHT22;21637;53.352;-6.356;2023-09-19T00:25:21;12.40;99.90
35531;DHT22;21637;53.352;-6.356;2023-09-19T00:27:49;12.30;99.90
35531;DHT22;21637;53.352;-6.356;2023-09-19T00:30:16;12.30;99.90
35531;DHT22;21637;53.352;-6.356;2023-09-19T00:32:47;12.30;99.90
35531;DHT22;21637;53.352;-6.356;2023-09-19T00:35:14;12.30;99.90
35531;DHT22;21637;53.352;-6.356;2023-09-19T00:37:42;12.30;99.90
35531;DHT22;21637;53.352;-6.356;2023-09-19T00:40:09;12.30;99.90
35531;DHT22;21637;53.352;-6.356;2023-09-19T00:42:41;12.30;99.90
35531;DHT22;21637;53.352;-6.356;2023-09-19T00:45:12;12.20;99.90
35531;DHT22;21637;53.352;-6.356;2023-09-19T00:47:43;12.20;99.90
35531;DHT22;21637;53.352;-6.356;2023-09-19T00:50:10;12.20;99.90
35531;DHT22;21637;53.352;-6.356;2023-09-19T00:52:40;12.20;99.90
35531;DHT22;21637;53.352;-6.356;2023-09-19T00:55:09;12.20;99.90
35531;DHT22;21637;53.352;-6.356;2023-09-19T00:57:36;12.20;99.90
35531;DHT22;21637;53.352;-6.356;2023-09-19T01:00:04;12.20;99.90
35531;DHT22;21637;53.352;-6.356;2023-09-19T01:02:32;12.10;99.90
35531;DHT22;21637;53.352;-6.356;2023-09-19T01:04:58;12.10;99.90
35531;DHT22;21637;53.352;-6.356;2023-09-19T01:07:25;12.10;99.90
35531;DHT22;21637;53.352;-6.356;2023-09-19T01:09:51;12.10;99.90
35531;DHT22;21637;53.352;-6.356;2023-09-19T01:12:30;12.10;99.90
35531;DHT22;21637;53.352;-6.356;2023-09-19T01:15:11;12.10;99.90
35531;DHT22;21637;53.352;-6.356;2023-09-19T01:20:57;12.10;99.90
35531;DHT22;21637;53.352;-6.356;2023-09-19T01:29:44;12.20;99.90
35531;DHT22;21637;53.352;-6.356;2023-09-19T01:32:15;12.20;99.90
35531;DHT22;21637;53.352;-6.356;2023-09-19T01:37:16;12.20;99.90
35531;DHT22;21637;53.352;-6.356;2023-09-19T01:39:47;12.20;99.90
35531;DHT22;21637;53.352;-6.356;2023-09-19T01:45:08;12.20;99.90
35531;DHT22;21637;53.352;-6.356;2023-09-19T01:47:56;12.10;99.90
35531;DHT22;21637;53.352;-6.356;2023-09-19T01:50:38;12.20;99.90
35531;DHT22;21637;53.352;-6.356;2023-09-19T01:53:14;12.20;99.90
35531;DHT22;21637;53.352;-6.356;2023-09-19T01:55:47;12.20;99.90
35531;DHT22;21637;53.352;-6.356;2023-09-19T01:58:27;12.20;99.90
35531;DHT22;21637;53.352;-6.356;2023-09-19T02:00:56;12.30;99.90
35531;DHT22;21637;53.352;-6.356;2023-09-19T02:03:24;12.30;99.90
35531;DHT22;21637;53.352;-6.356;2023-09-19T02:05:51;12.30;99.90
35531;DHT22;21637;53.352;-6.356;2023-09-19T02:08:20;12.30;99.90
35531;DHT22;21637;53.352;-6.356;2023-09-19T02:10:49;12.30;99.90
35531;DHT22;21637;53.352;-6.356;2023-09-19T02:13:18;12.30;99.90
35531;DHT22;21637;53.352;-6.356;2023-09-19T02:15:45;12.40;99.90
35531;DHT22;21637;53.352;-6.356;2023-09-19T02:18:12;12.40;99.90
35531;DHT22;21637;53.352;-6.356;2023-09-19T02:20:41;12.50;99.90
35531;DHT22;21637;53.352;-6.356;2023-09-19T02:23:07;12.50;99.90
35531;DHT22;21637;53.352;-6.356;2023-09-19T02:25:34;12.50;99.90
35531;DHT22;21637;53.352;-6.356;2023-09-19T02:28:01;12.60;99.90
35531;DHT22;21637;53.352;-6.356;2023-09-19T02:30:29;12.50;99.90
35531;DHT22;21637;53.352;-6.356;2023-09-19T02:32:55;12.60;99.90
35531;DHT22;21637;53.352;-6.356;2023-09-19T02:35:21;12.60;99.90
35531;DHT22;21637;53.352;-6.356;2023-09-19T02:37:47;12.60;99.90
35531;DHT22;21637;53.352;-6.356;2023-09-19T02:40:13;12.60;99.90
35531;DHT22;21637;53.352;-6.356;2023-09-19T02:42:48;12.60;99.90
35531;DHT22;21637;53.352;-6.356;2023-09-19T02:45:18;12.60;99.90
35531;DHT22;21637;53.352;-6.356;2023-09-19T02:47:45;12.60;99.90
35531;DHT22;21637;53.352;-6.356;2023-09-19T02:50:11;12.70;99.90
35531;DHT22;21637;53.352;-6.356;2023-09-19T02:52:38;12.70;99.90
35531;DHT22;21637;53.352;-6.356;2023-09-19T02:55:03;12.70;99.90
35531;DHT22;21637;53.352;-6.356;2023-09-19T02:57:31;12.70;99.90
35531;DHT22;21637;53.352;-6.356;2023-09-19T02:59:58;12.70;99.90
35531;DHT22;21637;53.352;-6.356;2023-09-19T03:02:25;12.80;99.90
35531;DHT22;21637;53.352;-6.356;2023-09-19T03:04:53;12.80;99.90
35531;DHT22;21637;53.352;-6.356;2023-09-19T03:07:19;12.80;99.90
35531;DHT22;21637;53.352;-6.356;2023-09-19T03:09:45;12.80;99.90
35531;DHT22;21637;53.352;-6.356;2023-09-19T03:12:11;12.80;99.90
35531;DHT22;21637;53.352;-6.356;2023-09-19T03:14:36;12.80;99.90
35531;DHT22;21637;53.352;-6.356;2023-09-19T03:17:02;12.80;99.90
35531;DHT22;21637;53.352;-6.356;2023-09-19T03:19:31;12.80;99.90
35531;DHT22;21637;53.352;-6.356;2023-09-19T03:21:59;12.90;99.90
35531;DHT22;21637;53.352;-6.356;2023-09-19T03:24:25;12.80;99.90
35531;DHT22;21637;53.352;-6.356;2023-09-19T03:26:51;12.90;99.90
35531;DHT22;21637;53.352;-6.356;2023-09-19T03:29:17;12.90;99.90
35531;DHT22;21637;53.352;-6.356;2023-09-19T03:31:44;12.90;99.90
35531;DHT22;21637;53.352;-6.356;2023-09-19T03:34:09;12.90;99.90
35531;DHT22;21637;53.352;-6.356;2023-09-19T03:36:35;12.90;99.90
35531;DHT22;21637;53.352;-6.356;2023-09-19T03:39:02;13.00;99.90
35531;DHT22;21637;53.352;-6.356;2023-09-19T03:41:31;12.90;99.90
35531;DHT22;21637;53.352;-6.356;2023-09-19T03:43:57;12.90;99.90
35531;DHT22;21637;53.352;-6.356;2023-09-19T03:46:22;13.00;99.90
35531;DHT22;21637;53.352;-6.356;2023-09-19T03:48:48;13.00;99.90
35531;DHT22;21637;53.352;-6.356;2023-09-19T03:51:14;13.00;99.90
35531;DHT22;21637;53.352;-6.356;2023-09-19T03:53:40;13.10;99.90
35531;DHT22;21637;53.352;-6.356;2023-09-19T03:56:06;13.10;99.90
35531;DHT22;21637;53.352;-6.356;2023-09-19T03:58:33;13.20;99.90
35531;DHT22;21637;53.352;-6.356;2023-09-19T04:01:03;13.20;99.90
35531;DHT22;21637;53.352;-6.356;2023-09-19T04:03:29;13.30;99.90
35531;DHT22;21637;53.352;-6.356;2023-09-19T04:06:01;13.40;99.90
35531;DHT22;21637;53.352;-6.356;2023-09-19T04:08:27;13.50;99.90
35531;DHT22;21637;53.352;-6.356;2023-09-19T04:10:53;13.60;99.90
35531;DHT22;21637;53.352;-6.356;2023-09-19T04:13:19;13.60;99.90
35531;DHT22;21637;53.352;-6.356;2023-09-19T04:15:44;13.60;99.90
35531;DHT22;21637;53.352;-6.356;2023-09-19T04:18:12;13.70;99.90
35531;DHT22;21637;53.352;-6.356;2023-09-19T04:20:38;13.70;99.90
35531;DHT22;21637;53.352;-6.356;2023-09-19T04:23:04;13.80;99.90
35531;DHT22;21637;53.352;-6.356;2023-09-19T04:25:30;13.80;99.90
35531;DHT22;21637;53.352;-6.356;2023-09-19T04:27:57;13.90;99.90
35531;DHT22;21637;53.352;-6.356;2023-09-19T04:30:23;13.90;99.90
35531;DHT22;21637;53.352;-6.356;2023-09-19T04:32:49;14.00;99.90
35531;DHT22;21637;53.352;-6.356;2023-09-19T04:35:16;13.90;99.90
35531;DHT22;21637;53.352;-6.356;2023-09-19T04:37:41;14.00;99.90
35531;DHT22;21637;53.352;-6.356;2023-09-19T04:40:09;14.00;99.90
35531;DHT22;21637;53.352;-6.356;2023-09-19T04:42:43;14.10;99.90
35531;DHT22;21637;53.352;-6.356;2023-09-19T04:45:09;14.10;99.90
35531;DHT22;21637;53.352;-6.356;2023-09-19T04:47:36;14.20;99.90
35531;DHT22;21637;53.352;-6.356;2023-09-19T04:50:06;14.30;99.90
35531;DHT22;21637;53.352;-6.356;2023-09-19T04:52:32;14.30;99.90
35531;DHT22;21637;53.352;-6.356;2023-09-19T04:54:57;14.30;99.90
35531;DHT22;21637;53.352;-6.356;2023-09-19T04:57:23;14.40;99.90
35531;DHT22;21637;53.352;-6.356;2023-09-19T04:59:51;14.50;99.90
35531;DHT22;21637;53.352;-6.356;2023-09-19T05:02:16;14.50;99.90
35531;DHT22;21637;53.352;-6.356;2023-09-19T05:04:42;14.50;99.90
35531;DHT22;21637;53.352;-6.356;2023-09-19T05:07:08;14.50;99.90
35531;DHT22;21637;53.352;-6.356;2023-09-19T05:09:36;14.60;99.90
35531;DHT22;21637;53.352;-6.356;2023-09-19T05:12:03;14.60;99.90
35531;DHT22;21637;53.352;-6.356;2023-09-19T05:14:28;14.60;99.90
35531;DHT22;21637;53.352;-6.356;2023-09-19T05:16:55;14.60;99.90
35531;DHT22;21637;53.352;-6.356;2023-09-19T05:19:21;14.70;99.90
35531;DHT22;21637;53.352;-6.356;2023-09-19T05:21:46;14.70;99.90
35531;DHT22;21637;53.352;-6.356;2023-09-19T05:24:13;14.70;99.90
35531;DHT22;21637;53.352;-6.356;2023-09-19T05:26:40;14.80;99.90
35531;DHT22;21637;53.352;-6.356;2023-09-19T05:29:06;14.90;99.90
35531;DHT22;21637;53.352;-6.356;2023-09-19T05:31:33;14.90;99.90
35531;DHT22;21637;53.352;-6.356;2023-09-19T05:34:02;14.90;99.90
35531;DHT22;21637;53.352;-6.356;2023-09-19T05:36:27;14.90;99.90
35531;DHT22;21637;53.352;-6.356;2023-09-19T05:38:55;15.00;99.90
35531;DHT22;21637;53.352;-6.356;2023-09-19T05:41:21;15.10;99.90
35531;DHT22;21637;53.352;-6.356;2023-09-19T05:43:49;15.10;99.90
35531;DHT22;21637;53.352;-6.356;2023-09-19T05:46:15;15.10;99.90
35531;DHT22;21637;53.352;-6.356;2023-09-19T05:48:42;15.20;99.90
35531;DHT22;21637;53.352;-6.356;2023-09-19T05:51:09;15.10;99.90
35531;DHT22;21637;53.352;-6.356;2023-09-19T05:53:35;15.20;99.90
35531;DHT22;21637;53.352;-6.356;2023-09-19T05:56:01;15.20;99.90
35531;DHT22;21637;53.352;-6.356;2023-09-19T05:58:27;15.30;99.90
35531;DHT22;21637;53.352;-6.356;2023-09-19T06:00:52;15.30;99.90
35531;DHT22;21637;53.352;-6.356;2023-09-19T06:03:18;15.30;99.90
35531;DHT22;21637;53.352;-6.356;2023-09-19T06:05:44;15.40;99.90
35531;DHT22;21637;53.352;-6.356;2023-09-19T06:08:11;15.30;99.90
35531;DHT22;21637;53.352;-6.356;2023-09-19T06:10:37;15.40;99.90
35531;DHT22;21637;53.352;-6.356;2023-09-19T06:13:04;15.40;99.90
35531;DHT22;21637;53.352;-6.356;2023-09-19T06:15:30;15.40;99.90
35531;DHT22;21637;53.352;-6.356;2023-09-19T06:17:58;15.40;99.90
35531;DHT22;21637;53.352;-6.356;2023-09-19T06:20:30;15.40;99.90
35531;DHT22;21637;53.352;-6.356;2023-09-19T06:22:56;15.50;99.90
35531;DHT22;21637;53.352;-6.356;2023-09-19T06:25:22;15.50;99.90
35531;DHT22;21637;53.352;-6.356;2023-09-19T06:27:49;15.50;99.90
35531;DHT22;21637;53.352;-6.356;2023-09-19T06:30:18;15.50;99.90
35531;DHT22;21637;53.352;-6.356;2023-09-19T06:32:44;15.50;99.90
35531;DHT22;21637;53.352;-6.356;2023-09-19T06:35:11;15.50;99.90
35531;DHT22;21637;53.352;-6.356;2023-09-19T06:37:38;15.50;99.90
35531;DHT22;21637;53.352;-6.356;2023-09-19T06:40:11;15.50;99.90
35531;DHT22;21637;53.352;-6.356;2023-09-19T06:42:45;15.50;99.90
35531;DHT22;21637;53.352;-6.356;2023-09-19T06:45:12;15.60;99.90
35531;DHT22;21637;53.352;-6.356;2023-09-19T06:47:39;15.60;99.90
35531;DHT22;21637;53.352;-6.356;2023-09-19T06:50:05;15.60;99.90
35531;DHT22;21637;53.352;-6.356;2023-09-19T06:52:34;15.70;99.90
35531;DHT22;21637;53.352;-6.356;2023-09-19T06:55:00;15.70;99.90
35531;DHT22;21637;53.352;-6.356;2023-09-19T06:57:28;15.70;99.90
35531;DHT22;21637;53.352;-6.356;2023-09-19T06:59:55;15.80;99.90
35531;DHT22;21637;53.352;-6.356;2023-09-19T07:02:21;15.80;99.90
35531;DHT22;21637;53.352;-6.356;2023-09-19T07:04:47;15.80;99.90
35531;DHT22;21637;53.352;-6.356;2023-09-19T07:07:13;15.70;99.90
35531;DHT22;21637;53.352;-6.356;2023-09-19T07:09:39;15.80;99.90
35531;DHT22;21637;53.352;-6.356;2023-09-19T07:12:05;15.80;99.90
35531;DHT22;21637;53.352;-6.356;2023-09-19T07:14:31;15.80;99.90
35531;DHT22;21637;53.352;-6.356;2023-09-19T07:16:57;15.80;99.90
35531;DHT22;21637;53.352;-6.356;2023-09-19T07:19:25;15.90;99.90
35531;DHT22;21637;53.352;-6.356;2023-09-19T07:21:54;15.80;99.90
35531;DHT22;21637;53.352;-6.356;2023-09-19T07:24:19;16.00;99.90
35531;DHT22;21637;53.352;-6.356;2023-09-19T07:26:47;15.90;99.90
35531;DHT22;21637;53.352;-6.356;2023-09-19T07:29:14;16.00;99.90
35531;DHT22;21637;53.352;-6.356;2023-09-19T07:31:39;16.10;99.90
35531;DHT22;21637;53.352;-6.356;2023-09-19T07:34:05;16.00;99.90
35531;DHT22;21637;53.352;-6.356;2023-09-19T07:36:34;16.00;99.90
35531;DHT22;21637;53.352;-6.356;2023-09-19T07:39:00;16.10;99.90
35531;DHT22;21637;53.352;-6.356;2023-09-19T07:41:25;16.20;99.90
35531;DHT22;21637;53.352;-6.356;2023-09-19T07:43:51;16.20;99.90
35531;DHT22;21637;53.352;-6.356;2023-09-19T07:46:17;16.30;99.90
35531;DHT22;21637;53.352;-6.356;2023-09-19T07:48:44;16.30;99.90
35531;DHT22;21637;53.352;-6.356;2023-09-19T07:51:14;16.30;99.90
35531;DHT22;21637;53.352;-6.356;2023-09-19T07:53:41;16.30;99.90
35531;DHT22;21637;53.352;-6.356;2023-09-19T07:56:09;16.30;99.90
35531;DHT22;21637;53.352;-6.356;2023-09-19T07:58:35;16.40;99.90
35531;DHT22;21637;53.352;-6.356;2023-09-19T08:01:08;16.40;99.90
35531;DHT22;21637;53.352;-6.356;2023-09-19T08:03:34;16.40;99.90
35531;DHT22;21637;53.352;-6.356;2023-09-19T08:06:02;16.50;99.90
35531;DHT22;21637;53.352;-6.356;2023-09-19T08:08:28;16.40;99.90
35531;DHT22;21637;53.352;-6.356;2023-09-19T08:10:55;16.50;99.90
35531;DHT22;21637;53.352;-6.356;2023-09-19T08:13:25;16.60;99.90
35531;DHT22;21637;53.352;-6.356;2023-09-19T08:15:51;16.70;99.90
35531;DHT22;21637;53.352;-6.356;2023-09-19T08:18:19;16.80;99.90
35531;DHT22;21637;53.352;-6.356;2023-09-19T08:20:53;16.90;99.90
35531;DHT22;21637;53.352;-6.356;2023-09-19T08:23:19;16.90;99.90
35531;DHT22;21637;53.352;-6.356;2023-09-19T08:25:48;17.00;99.90
35531;DHT22;21637;53.352;-6.356;2023-09-19T08:28:14;17.10;99.90
35531;DHT22;21637;53.352;-6.356;2023-09-19T08:30:47;17.20;99.90
35531;DHT22;21637;53.352;-6.356;2023-09-19T08:33:13;17.30;99.90
35531;DHT22;21637;53.352;-6.356;2023-09-19T08:35:41;17.30;99.90
35531;DHT22;21637;53.352;-6.356;2023-09-19T08:38:08;17.40;99.90
35531;DHT22;21637;53.352;-6.356;2023-09-19T08:40:37;17.50;99.90
35531;DHT22;21637;53.352;-6.356;2023-09-19T08:43:05;17.50;99.90
35531;DHT22;21637;53.352;-6.356;2023-09-19T08:45:32;17.70;99.90
35531;DHT22;21637;53.352;-6.356;2023-09-19T08:48:17;17.70;99.90
35531;DHT22;21637;53.352;-6.356;2023-09-19T08:53:42;17.90;99.90
35531;DHT22;21637;53.352;-6.356;2023-09-19T08:56:12;18.00;99.90
35531;DHT22;21637;53.352;-6.356;2023-09-19T08:58:53;18.10;99.90
35531;DHT22;21637;53.352;-6.356;2023-09-19T09:01:21;18.10;99.90
35531;DHT22;21637;53.352;-6.356;2023-09-19T09:03:52;18.00;99.90
35531;DHT22;21637;53.352;-6.356;2023-09-19T09:06:23;18.00;99.90
35531;DHT22;21637;53.352;-6.356;2023-09-19T09:08:51;18.00;99.90
35531;DHT22;21637;53.352;-6.356;2023-09-19T09:11:17;17.90;99.90
35531;DHT22;21637;53.352;-6.356;2023-09-19T09:13:44;17.80;99.90
35531;DHT22;21637;53.352;-6.356;2023-09-19T09:16:10;17.70;99.90
35531;DHT22;21637;53.352;-6.356;2023-09-19T09:18:36;17.60;99.90
35531;DHT22;21637;53.352;-6.356;2023-09-19T09:21:03;17.70;99.90
35531;DHT22;21637;53.352;-6.356;2023-09-19T09:23:30;17.70;99.90
35531;DHT22;21637;53.352;-6.356;2023-09-19T09:25:58;17.60;99.90
35531;DHT22;21637;53.352;-6.356;2023-09-19T09:28:29;17.60;99.90
35531;DHT22;21637;53.352;-6.356;2023-09-19T09:30:56;17.50;99.90
35531;DHT22;21637;53.352;-6.356;2023-09-19T09:33:24;17.50;99.90
35531;DHT22;21637;53.352;-6.356;2023-09-19T09:35:51;17.50;99.90
35531;DHT22;21637;53.352;-6.356;2023-09-19T09:38:21;17.50;99.90
35531;DHT22;21637;53.352;-6.356;2023-09-19T09:40:52;17.50;99.90
35531;DHT22;21637;53.352;-6.356;2023-09-19T09:43:49;17.60;99.90
35531;DHT22;21637;53.352;-6.356;2023-09-19T09:46:16;17.70;99.90
35531;DHT22;21637;53.352;-6.356;2023-09-19T09:51:41;17.70;99.90
35531;DHT22;21637;53.352;-6.356;2023-09-19T09:54:17;17.80;99.90
35531;DHT22;21637;53.352;-6.356;2023-09-19T09:57:01;17.80;99.90
35531;DHT22;21637;53.352;-6.356;2023-09-19T09:59:50;18.00;99.90
35531;DHT22;21637;53.352;-6.356;2023-09-19T10:02:17;18.10;99.90
35531;DHT22;21637;53.352;-6.356;2023-09-19T10:04:57;18.00;99.90
35531;DHT22;21637;53.352;-6.356;2023-09-19T10:07:40;18.00;99.90
35531;DHT22;21637;53.352;-6.356;2023-09-19T10:10:11;18.00;99.90
35531;DHT22;21637;53.352;-6.356;2023-09-19T10:12:49;18.10;99.90
35531;DHT22;21637;53.352;-6.356;2023-09-19T10:15:24;18.00;99.90
35531;DHT22;21637;53.352;-6.356;2023-09-19T10:17:52;18.00;99.90
35531;DHT22;21637;53.352;-6.356;2023-09-19T10:20:21;18.00;99.90
35531;DHT22;21637;53.352;-6.356;2023-09-19T10:22:50;18.10;99.90
35531;DHT22;21637;53.352;-6.356;2023-09-19T10:25:27;18.00;99.90
35531;DHT22;21637;53.352;-6.356;2023-09-19T10:28:00;18.10;99.90
35531;DHT22;21637;53.352;-6.356;2023-09-19T10:30:32;18.10;99.90
35531;DHT22;21637;53.352;-6.356;2023-09-19T10:33:03;18.10;99.90
35531;DHT22;21637;53.352;-6.356;2023-09-19T10:35:32;18.10;99.90
35531;DHT22;21637;53.352;-6.356;2023-09-19T10:38:01;18.20;99.90
35531;DHT22;21637;53.352;-6.356;2023-09-19T10:40:28;18.30;99.90
35531;DHT22;21637;53.352;-6.356;2023-09-19T10:43:04;18.30;99.90
35531;DHT22;21637;53.352;-6.356;2023-09-19T10:45:34;18.40;99.90
35531;DHT22;21637;53.352;-6.356;2023-09-19T10:48:01;18.40;99.90
35531;DHT22;21637;53.352;-6.356;2023-09-19T10:50:36;18.40;99.90
35531;DHT22;21637;53.352;-6.356;2023-09-19T10:53:07;18.40;99.90
35531;DHT22;21637;53.352;-6.356;2023-09-19T10:55:36;18.40;99.90
35531;DHT22;21637;53.352;-6.356;2023-09-19T10:58:02;18.40;99.90
35531;DHT22;21637;53.352;-6.356;2023-09-19T11:00:58;18.40;99.90
35531;DHT22;21637;53.352;-6.356;2023-09-19T11:03:38;18.30;99.90
35531;DHT22;21637;53.352;-6.356;2023-09-19T11:06:16;18.30;99.90
35531;DHT22;21637;53.352;-6.356;2023-09-19T11:11:46;18.20;99.90
35531;DHT22;21637;53.352;-6.356;2023-09-19T11:30:51;18.30;99.90
35531;DHT22;21637;53.352;-6.356;2023-09-19T11:33:30;18.30;99.90
35531;DHT22;21637;53.352;-6.356;2023-09-19T11:36:08;18.50;99.90
35531;DHT22;21637;53.352;-6.356;2023-09-19T11:43:52;18.60;99.90
35531;DHT22;21637;53.352;-6.356;2023-09-19T11:46:20;18.60;99.90
35531;DHT22;21637;53.352;-6.356;2023-09-19T11:48:51;18.70;99.90
35531;DHT22;21637;53.352;-6.356;2023-09-19T11:51:17;18.80;99.90
35531;DHT22;21637;53.352;-6.356;2023-09-19T11:53:56;18.90;99.90
35531;DHT22;21637;53.352;-6.356;2023-09-19T11:56:26;18.90;99.90
35531;DHT22;21637;53.352;-6.356;2023-09-19T11:58:57;19.00;99.90
35531;DHT22;21637;53.352;-6.356;2023-09-19T12:01:29;19.10;99.90
35531;DHT22;21637;53.352;-6.356;2023-09-19T12:03:56;19.10;99.90
35531;DHT22;21637;53.352;-6.356;2023-09-19T12:06:24;19.10;99.90
35531;DHT22;21637;53.352;-6.356;2023-09-19T12:08:50;19.10;99.90
35531;DHT22;21637;53.352;-6.356;2023-09-19T12:11:17;19.10;99.90
35531;DHT22;21637;53.352;-6.356;2023-09-19T12:13:47;19.20;99.90
35531;DHT22;21637;53.352;-6.356;2023-09-19T12:16:19;19.30;99.90
35531;DHT22;21637;53.352;-6.356;2023-09-19T12:18:49;19.20;99.90
35531;DHT22;21637;53.352;-6.356;2023-09-19T12:21:30;19.30;99.90
35531;DHT22;21637;53.352;-6.356;2023-09-19T12:24:14;19.40;99.90
35531;DHT22;21637;53.352;-6.356;2023-09-19T12:26:43;19.50;99.90
35531;DHT22;21637;53.352;-6.356;2023-09-19T12:29:21;19.40;99.90
35531;DHT22;21637;53.352;-6.356;2023-09-19T12:31:55;19.40;99.90
35531;DHT22;21637;53.352;-6.356;2023-09-19T12:34:31;19.20;99.90
35531;DHT22;21637;53.352;-6.356;2023-09-19T12:37:04;19.10;99.90
35531;DHT22;21637;53.352;-6.356;2023-09-19T12:39:40;18.90;99.90
35531;DHT22;21637;53.352;-6.356;2023-09-19T12:42:10;18.80;99.90
35531;DHT22;21637;53.352;-6.356;2023-09-19T12:44:44;18.70;99.90
35531;DHT22;21637;53.352;-6.356;2023-09-19T12:47:15;18.70;99.90
35531;DHT22;21637;53.352;-6.356;2023-09-19T12:52:57;18.60;99.90
35531;DHT22;21637;53.352;-6.356;2023-09-19T12:55:27;18.70;99.90
35531;DHT22;21637;53.352;-6.356;2023-09-19T13:00:37;18.80;99.90
35531;DHT22;21637;53.352;-6.356;2023-09-19T13:03:31;18.80;99.90
35531;DHT22;21637;53.352;-6.356;2023-09-19T13:06:03;18.90;99.90
35531;DHT22;21637;53.352;-6.356;2023-09-19T13:08:31;18.80;99.90
35531;DHT22;21637;53.352;-6.356;2023-09-19T13:11:05;18.80;99.90
35531;DHT22;21637;53.352;-6.356;2023-09-19T13:13:43;18.80;99.90
35531;DHT22;21637;53.352;-6.356;2023-09-19T13:16:10;18.80;99.90
35531;DHT22;21637;53.352;-6.356;2023-09-19T13:18:48;18.90;99.90
35531;DHT22;21637;53.352;-6.356;2023-09-19T13:21:17;18.80;99.90
35531;DHT22;21637;53.352;-6.356;2023-09-19T13:23:53;18.90;99.90
35531;DHT22;21637;53.352;-6.356;2023-09-19T13:26:27;18.90;99.90
35531;DHT22;21637;53.352;-6.356;2023-09-19T13:28:54;18.90;99.90
35531;DHT22;21637;53.352;-6.356;2023-09-19T13:31:20;18.90;99.90
35531;DHT22;21637;53.352;-6.356;2023-09-19T13:33:48;19.00;99.90
35531;DHT22;21637;53.352;-6.356;2023-09-19T13:36:14;19.10;99.90
35531;DHT22;21637;53.352;-6.356;2023-09-19T13:38:41;19.00;99.90
35531;DHT22;21637;53.352;-6.356;2023-09-19T13:41:10;19.00;99.90
35531;DHT22;21637;53.352;-6.356;2023-09-19T13:43:37;19.10;99.90
35531;DHT22;21637;53.352;-6.356;2023-09-19T13:46:03;19.10;99.90
35531;DHT22;21637;53.352;-6.356;2023-09-19T13:48:29;19.30;99.90
35531;DHT22;21637;53.352;-6.356;2023-09-19T13:50:55;19.30;99.90
35531;DHT22;21637;53.352;-6.356;2023-09-19T13:53:22;19.40;99.90
35531;DHT22;21637;53.352;-6.356;2023-09-19T13:55:47;19.50;99.90
35531;DHT22;21637;53.352;-6.356;2023-09-19T13:58:14;19.60;99.90
35531;DHT22;21637;53.352;-6.356;2023-09-19T14:00:40;19.50;99.90
35531;DHT22;21637;53.352;-6.356;2023-09-19T14:03:06;19.30;99.90
35531;DHT22;21637;53.352;-6.356;2023-09-19T14:05:32;19.30;99.90
35531;DHT22;21637;53.352;-6.356;2023-09-19T14:07:58;19.40;99.90
35531;DHT22;21637;53.352;-6.356;2023-09-19T14:10:25;19.50;99.90
35531;DHT22;21637;53.352;-6.356;2023-09-19T14:12:53;19.50;99.90
35531;DHT22;21637;53.352;-6.356;2023-09-19T14:15:19;19.50;99.90
35531;DHT22;21637;53.352;-6.356;2023-09-19T14:17:45;19.50;99.90
35531;DHT22;21637;53.352;-6.356;2023-09-19T14:20:11;19.50;99.90
35531;DHT22;21637;53.352;-6.356;2023-09-19T14:22:37;19.50;99.90
35531;DHT22;21637;53.352;-6.356;2023-09-19T14:25:04;19.50;99.90
35531;DHT22;21637;53.352;-6.356;2023-09-19T14:27:30;19.60;99.90
35531;DHT22;21637;53.352;-6.356;2023-09-19T14:29:56;19.60;99.90
35531;DHT22;21637;53.352;-6.356;2023-09-19T14:32:23;19.60;99.90
35531;DHT22;21637;53.352;-6.356;2023-09-19T14:34:48;19.60;99.90
35531;DHT22;21637;53.352;-6.356;2023-09-19T14:37:14;19.60;99.90
35531;DHT22;21637;53.352;-6.356;2023-09-19T14:39:42;19.60;99.90
35531;DHT22;21637;53.352;-6.356;2023-09-19T14:42:10;19.70;99.90
35531;DHT22;21637;53.352;-6.356;2023-09-19T14:44:36;19.70;99.90
35531;DHT22;21637;53.352;-6.356;2023-09-19T14:47:05;19.80;99.90
35531;DHT22;21637;53.352;-6.356;2023-09-19T14:49:35;19.90;99.90
35531;DHT22;21637;53.352;-6.356;2023-09-19T14:52:08;19.90;99.90
35531;DHT22;21637;53.352;-6.356;2023-09-19T14:54:35;19.80;99.90
35531;DHT22;21637;53.352;-6.356;2023-09-19T14:57:00;19.70;99.90
35531;DHT22;21637;53.352;-6.356;2023-09-19T14:59:34;19.70;99.90
35531;DHT22;21637;53.352;-6.356;2023-09-19T15:02:06;19.60;99.90
35531;DHT22;21637;53.352;-6.356;2023-09-19T15:04:33;19.40;99.90
35531;DHT22;21637;53.352;-6.356;2023-09-19T15:06:59;19.40;99.90
35531;DHT22;21637;53.352;-6.356;2023-09-19T15:09:25;19.30;99.90
35531;DHT22;21637;53.352;-6.356;2023-09-19T15:11:54;19.20;99.90
35531;DHT22;21637;53.352;-6.356;2023-09-19T15:14:21;19.10;99.90
35531;DHT22;21637;53.352;-6.356;2023-09-19T15:16:47;18.90;99.90
35531;DHT22;21637;53.352;-6.356;2023-09-19T15:19:14;18.90;99.90
35531;DHT22;21637;53.352;-6.356;2023-09-19T15:21:40;19.10;99.90
35531;DHT22;21637;53.352;-6.356;2023-09-19T15:24:06;19.20;99.90
35531;DHT22;21637;53.352;-6.356;2023-09-19T15:26:36;19.30;99.90
35531;DHT22;21637;53.352;-6.356;2023-09-19T15:29:08;19.40;99.90
35531;DHT22;21637;53.352;-6.356;2023-09-19T15:31:35;19.50;99.90
35531;DHT22;21637;53.352;-6.356;2023-09-19T15:34:04;19.50;99.90
35531;DHT22;21637;53.352;-6.356;2023-09-19T15:36:31;19.50;99.90
35531;DHT22;21637;53.352;-6.356;2023-09-19T15:41:27;19.70;99.90
35531;DHT22;21637;53.352;-6.356;2023-09-19T15:43:54;19.70;99.90
35531;DHT22;21637;53.352;-6.356;2023-09-19T15:46:21;19.80;99.90
35531;DHT22;21637;53.352;-6.356;2023-09-19T15:48:46;19.90;99.90
35531;DHT22;21637;53.352;-6.356;2023-09-19T15:51:13;19.90;99.90
35531;DHT22;21637;53.352;-6.356;2023-09-19T15:53:47;20.00;99.90
35531;DHT22;21637;53.352;-6.356;2023-09-19T15:56:14;20.10;99.90
35531;DHT22;21637;53.352;-6.356;2023-09-19T15:58:47;20.30;99.90
35531;DHT22;21637;53.352;-6.356;2023-09-19T16:01:14;20.30;99.90
35531;DHT22;21637;53.352;-6.356;2023-09-19T16:03:47;20.20;99.90
35531;DHT22;21637;53.352;-6.356;2023-09-19T16:06:21;20.20;99.90
35531;DHT22;21637;53.352;-6.356;2023-09-19T16:08:50;20.10;99.90
35531;DHT22;21637;53.352;-6.356;2023-09-19T16:11:17;20.00;99.90
35531;DHT22;21637;53.352;-6.356;2023-09-19T16:13:48;20.00;99.90
35531;DHT22;21637;53.352;-6.356;2023-09-19T16:16:14;19.90;99.90
35531;DHT22;21637;53.352;-6.356;2023-09-19T16:21:14;19.80;99.90